createdAt,value
2023-09-21T00:01:25.051Z,17.46
2023-09-21T00:03:54.679Z,17.43
2023-09-21T00:06:22.986Z,17.41
2023-09-21T00:08:51.381Z,17.37
2023-09-21T00:11:19.894Z,17.35
2023-09-21T00:13:48.180Z,17.34
2023-09-21T00:16:18.152Z,17.32
2023-09-21T00:18:46.423Z,17.30
2023-09-21T00:21:15.910Z,17.26
2023-09-21T00:23:46.047Z,17.24
2023-09-21T00:26:15.463Z,17.23
2023-09-21T00:28:47.424Z,17.21
2023-09-21T00:31:15.508Z,17.20
2023-09-21T00:33:43.488Z,17.18
2023-09-21T00:36:14.794Z,17.15
2023-09-21T00:38:43.505Z,17.10
2023-09-21T00:41:12.855Z,17.07
2023-09-21T00:43:42.189Z,17.05
2023-09-21T00:46:10.970Z,17.02
2023-09-21T00:48:43.759Z,17.01
2023-09-21T00:51:15.078Z,17.00
2023-09-21T00:53:46.720Z,16.98
2023-09-21T00:56:19.253Z,16.96
2023-09-21T00:58:54.962Z,16.95
2023-09-21T01:01:28.754Z,16.95
2023-09-21T01:03:59.751Z,16.94
2023-09-21T01:06:29.090Z,16.94
2023-09-21T01:08:58.097Z,16.94
2023-09-21T01:11:27.072Z,16.94
2023-09-21T01:13:55.019Z,16.93
2023-09-21T01:16:25.590Z,16.93
2023-09-21T01:18:54.254Z,16.90
2023-09-21T01:21:35.337Z,16.86
2023-09-21T01:24:04.699Z,16.84
2023-09-21T01:26:33.927Z,16.82
2023-09-21T01:29:02.623Z,16.80
2023-09-21T01:31:31.150Z,16.78
2023-09-21T01:34:04.611Z,16.76
2023-09-21T01:36:34.371Z,16.73
2023-09-21T01:39:02.314Z,16.71
2023-09-21T01:41:30.988Z,16.68
2023-09-21T01:43:59.060Z,16.69
2023-09-21T01:46:27.841Z,16.69
2023-09-21T01:48:56.075Z,16.69
2023-09-21T01:51:24.378Z,16.69
2023-09-21T01:53:54.859Z,16.69
2023-09-21T01:56:23.000Z,16.68
2023-09-21T01:58:50.989Z,16.68
2023-09-21T02:01:20.520Z,16.67
2023-09-21T02:03:48.800Z,16.65
2023-09-21T02:06:17.041Z,16.65
2023-09-21T02:08:45.767Z,16.65
2023-09-21T02:11:14.890Z,16.64
2023-09-21T02:13:43.106Z,16.62
2023-09-21T02:16:11.397Z,16.61
2023-09-21T02:18:39.415Z,16.62
2023-09-21T02:21:09.781Z,16.61
2023-09-21T02:23:38.983Z,16.59
2023-09-21T02:26:08.236Z,16.58
2023-09-21T02:28:36.895Z,16.58
2023-09-21T02:31:14.335Z,16.57
2023-09-21T02:33:44.392Z,16.56
2023-09-21T02:36:14.565Z,16.55
2023-09-21T02:38:43.178Z,16.55
2023-09-21T02:41:12.106Z,16.56
2023-09-21T02:43:41.648Z,16.56
2023-09-21T02:46:11.078Z,16.56
2023-09-21T02:48:39.176Z,16.56
2023-09-21T02:51:07.610Z,16.54
2023-09-21T02:53:35.921Z,16.53
2023-09-21T02:56:05.048Z,16.52
2023-09-21T02:58:34.743Z,16.53
2023-09-21T03:01:02.861Z,16.53
2023-09-21T03:03:33.574Z,16.53
2023-09-21T03:06:01.787Z,16.51
2023-09-21T03:08:29.640Z,16.50
2023-09-21T03:10:58.383Z,16.51
2023-09-21T03:13:26.883Z,16.51
2023-09-21T03:16:00.891Z,16.51
2023-09-21T03:18:32.347Z,16.51
2023-09-21T03:21:00.790Z,16.51
2023-09-21T03:23:29.439Z,16.51
2023-09-21T03:25:58.857Z,16.50
2023-09-21T03:28:27.288Z,16.50
2023-09-21T03:30:58.907Z,16.51
2023-09-21T03:33:27.445Z,16.53
2023-09-21T03:35:55.973Z,16.52
2023-09-21T03:38:24.204Z,16.51
2023-09-21T03:40:54.472Z,16.49
2023-09-21T03:43:24.890Z,16.49
2023-09-21T03:45:53.020Z,16.51
2023-09-21T03:48:21.151Z,16.51
2023-09-21T03:50:53.704Z,16.48
2023-09-21T03:53:22.152Z,16.48
2023-09-21T03:55:50.775Z,16.47
2023-09-21T03:58:20.851Z,16.46
2023-09-21T04:00:50.329Z,16.44
2023-09-21T04:03:20.233Z,16.42
2023-09-21T04:06:03.525Z,16.39
2023-09-21T04:08:32.342Z,16.36
2023-09-21T04:11:01.049Z,16.33
2023-09-21T04:13:29.059Z,16.30
2023-09-21T04:15:56.904Z,16.28
2023-09-21T04:18:27.666Z,16.27
2023-09-21T04:21:10.424Z,16.27
2023-09-21T04:23:44.938Z,16.26
2023-09-21T04:26:13.386Z,16.31
2023-09-21T04:28:41.743Z,16.32
2023-09-21T04:31:15.226Z,16.33
2023-09-21T04:33:43.548Z,16.58
2023-09-21T04:36:11.814Z,16.75
2023-09-21T04:38:40.107Z,16.72
2023-09-21T04:41:16.120Z,16.68
2023-09-21T04:43:45.449Z,16.63
2023-09-21T04:46:14.256Z,16.60
2023-09-21T04:48:42.749Z,16.57
2023-09-21T04:51:17.206Z,16.57
2023-09-21T04:53:46.769Z,16.58
2023-09-21T04:56:15.194Z,16.59
2023-09-21T04:58:43.572Z,16.61
2023-09-21T05:01:12.333Z,16.63
2023-09-21T05:03:42.110Z,16.65
2023-09-21T05:06:10.231Z,16.66
2023-09-21T05:08:38.296Z,16.66
2023-09-21T05:11:06.500Z,16.69
2023-09-21T05:13:35.070Z,16.71
2023-09-21T05:16:04.644Z,16.73
2023-09-21T05:18:32.636Z,16.75
2023-09-21T05:21:02.680Z,16.76
2023-09-21T05:23:30.759Z,16.78
2023-09-21T05:25:58.847Z,16.81
2023-09-21T05:28:26.895Z,16.83
2023-09-21T05:30:55.775Z,16.84
2023-09-21T05:33:24.822Z,16.86
2023-09-21T05:35:55.182Z,16.90
2023-09-21T05:38:23.264Z,16.93
2023-09-21T05:40:51.131Z,16.95
2023-09-21T05:43:19.227Z,16.97
2023-09-21T05:45:47.379Z,17.01
2023-09-21T05:48:19.015Z,17.08
2023-09-21T05:50:47.205Z,17.17
2023-09-21T05:53:15.044Z,17.29
2023-09-21T05:55:46.026Z,17.42
2023-09-21T05:58:17.063Z,17.58
2023-09-21T06:00:45.100Z,17.72
2023-09-21T06:03:13.134Z,17.90
2023-09-21T06:05:41.705Z,18.09
2023-09-21T06:08:09.701Z,18.29
2023-09-21T06:10:37.694Z,18.45
2023-09-21T06:13:08.886Z,18.60
2023-09-21T06:15:38.556Z,18.76
2023-09-21T06:18:06.674Z,18.89
2023-09-21T06:20:36.269Z,19.02
2023-09-21T06:23:07.828Z,19.12
2023-09-21T06:25:36.430Z,19.22
2023-09-21T06:28:05.295Z,19.27
2023-09-21T06:30:33.878Z,19.32
2023-09-21T06:33:02.554Z,19.38
2023-09-21T06:35:30.987Z,19.46
2023-09-21T06:38:01.168Z,19.55
2023-09-21T06:40:29.534Z,19.62
2023-09-21T06:42:57.542Z,19.69
2023-09-21T06:45:30.084Z,19.75
2023-09-21T06:47:58.185Z,19.83
2023-09-21T06:50:26.222Z,19.88
2023-09-21T06:52:54.413Z,19.93
2023-09-21T06:55:22.258Z,19.98
2023-09-21T06:57:50.478Z,20.03
2023-09-21T07:00:18.438Z,20.07
2023-09-21T07:02:47.455Z,20.15
2023-09-21T07:05:15.645Z,20.25
2023-09-21T07:07:43.718Z,20.35
2023-09-21T07:10:12.025Z,20.45
2023-09-21T07:12:40.503Z,20.56
2023-09-21T07:15:09.027Z,20.66
2023-09-21T07:17:37.876Z,20.75
2023-09-21T07:20:07.732Z,20.85
2023-09-21T07:22:35.649Z,20.96
2023-09-21T07:25:04.302Z,21.05
2023-09-21T07:27:33.366Z,21.17
2023-09-21T07:30:01.847Z,21.28
2023-09-21T07:32:31.017Z,21.40
2023-09-21T07:34:59.462Z,21.53
2023-09-21T07:37:28.878Z,21.65
2023-09-21T07:39:58.482Z,21.79
2023-09-21T07:42:26.280Z,21.95
2023-09-21T07:44:54.159Z,22.11
2023-09-21T07:47:24.102Z,22.27
2023-09-21T07:49:55.981Z,22.42
2023-09-21T07:52:30.084Z,22.55
2023-09-21T07:54:58.243Z,22.67
2023-09-21T07:57:26.479Z,22.79
2023-09-21T07:59:54.375Z,22.91
2023-09-21T08:02:23.141Z,23.01
2023-09-21T08:04:51.192Z,23.13
2023-09-21T08:07:24.456Z,23.27
2023-09-21T08:09:52.993Z,23.39
2023-09-21T08:12:23.090Z,23.52
2023-09-21T08:14:52.127Z,23.64
2023-09-21T08:17:20.204Z,23.77
2023-09-21T08:19:48.161Z,23.89
2023-09-21T08:22:15.949Z,24.02
2023-09-21T08:24:44.229Z,24.16
2023-09-21T08:27:12.172Z,24.28
2023-09-21T08:29:41.651Z,24.40
2023-09-21T08:32:10.785Z,24.51
2023-09-21T08:34:38.727Z,24.57
2023-09-21T08:37:06.700Z,24.64
2023-09-21T08:39:35.190Z,24.71
2023-09-21T08:42:04.848Z,24.80
2023-09-21T08:44:33.653Z,24.88
2023-09-21T08:47:02.045Z,24.94
2023-09-21T08:49:33.135Z,24.99
2023-09-21T08:52:01.896Z,25.04
2023-09-21T08:54:30.285Z,25.12
2023-09-21T08:57:01.212Z,25.19
2023-09-21T08:59:30.790Z,25.26
2023-09-21T09:01:59.579Z,25.34
2023-09-21T09:04:29.628Z,25.41
2023-09-21T09:06:58.648Z,25.49
2023-09-21T09:09:27.792Z,25.58
2023-09-21T09:11:58.079Z,25.65
2023-09-21T09:14:26.102Z,25.71
2023-09-21T09:16:53.990Z,25.80
2023-09-21T09:19:22.148Z,25.91
2023-09-21T09:21:53.199Z,25.97
2023-09-21T09:24:24.430Z,25.99
2023-09-21T09:26:53.259Z,26.01
2023-09-21T09:29:23.400Z,26.06
2023-09-21T09:31:51.471Z,26.04
2023-09-21T09:34:21.663Z,26.01
2023-09-21T09:36:53.481Z,25.97
2023-09-21T09:39:24.439Z,25.99
2023-09-21T09:41:53.156Z,26.04
2023-09-21T09:44:23.605Z,26.10
2023-09-21T09:46:58.972Z,26.12
2023-09-21T09:49:30.175Z,26.14
2023-09-21T09:52:01.881Z,26.18
2023-09-21T09:54:33.624Z,26.25
2023-09-21T09:57:02.845Z,26.32
2023-09-21T09:59:33.269Z,26.33
2023-09-21T10:02:01.262Z,26.31
2023-09-21T10:04:34.562Z,26.30
2023-09-21T10:07:05.477Z,26.30
2023-09-21T10:09:34.175Z,26.32
2023-09-21T10:12:05.051Z,26.34
2023-09-21T10:14:37.961Z,26.41
2023-09-21T10:17:06.761Z,26.47
2023-09-21T10:19:39.988Z,26.62
2023-09-21T10:22:25.244Z,26.75
2023-09-21T10:24:57.120Z,26.78
2023-09-21T10:27:28.906Z,26.74
2023-09-21T10:30:08.420Z,26.63
2023-09-21T10:32:45.362Z,26.54
2023-09-21T10:35:34.053Z,26.46
2023-09-21T10:38:15.859Z,26.43
2023-09-21T10:40:45.097Z,26.34
2023-09-21T10:43:38.170Z,26.26
2023-09-21T10:46:22.816Z,26.26
2023-09-21T10:49:06.735Z,26.31
2023-09-21T10:51:36.542Z,26.44
2023-09-21T10:54:08.615Z,26.67
2023-09-21T10:56:38.938Z,26.89
2023-09-21T10:59:10.370Z,26.99
2023-09-21T11:01:38.749Z,27.03
2023-09-21T11:04:07.198Z,27.03
2023-09-21T11:06:35.302Z,26.95
2023-09-21T11:09:03.830Z,26.82
2023-09-21T11:11:31.918Z,26.75
2023-09-21T11:14:00.367Z,26.68
2023-09-21T11:16:28.570Z,26.59
2023-09-21T11:18:57.114Z,26.55
2023-09-21T11:21:25.453Z,26.53
2023-09-21T11:23:54.588Z,26.50
2023-09-21T11:26:30.831Z,26.46
2023-09-21T11:29:00.401Z,26.40
2023-09-21T11:31:30.062Z,26.39
2023-09-21T11:34:06.590Z,26.37
2023-09-21T11:36:38.553Z,26.34
2023-09-21T11:39:10.151Z,26.31
2023-09-21T11:41:40.777Z,26.32
2023-09-21T11:44:09.440Z,26.42
2023-09-21T11:46:41.586Z,26.63
2023-09-21T11:49:12.282Z,26.88
2023-09-21T11:51:45.085Z,27.02
2023-09-21T11:54:13.368Z,27.06
2023-09-21T11:56:43.458Z,27.09
2023-09-21T11:59:12.506Z,27.16
2023-09-21T12:01:40.817Z,27.16
2023-09-21T12:04:14.036Z,27.15
2023-09-21T12:06:43.988Z,27.09
2023-09-21T12:09:14.370Z,27.00
2023-09-21T12:11:42.717Z,27.01
2023-09-21T12:14:10.765Z,27.01
2023-09-21T12:16:40.271Z,26.99
2023-09-21T12:19:09.873Z,26.96
2023-09-21T12:21:39.106Z,26.95
2023-09-21T12:24:08.940Z,26.97
2023-09-21T12:26:37.901Z,27.02
2023-09-21T12:29:05.847Z,27.06
2023-09-21T12:31:49.196Z,27.11
2023-09-21T12:34:22.650Z,27.18
2023-09-21T12:36:50.835Z,27.29
2023-09-21T12:39:20.392Z,27.37
2023-09-21T12:41:48.538Z,27.42
2023-09-21T12:44:16.682Z,27.36
2023-09-21T12:46:45.404Z,27.36
2023-09-21T12:49:14.865Z,27.33
2023-09-21T12:51:45.180Z,27.28
2023-09-21T12:54:13.945Z,27.19
2023-09-21T12:56:42.922Z,27.11
2023-09-21T12:59:11.181Z,27.03
2023-09-21T13:01:40.373Z,26.99
2023-09-21T13:04:08.771Z,26.97
2023-09-21T13:06:41.428Z,26.91
2023-09-21T13:09:12.292Z,26.86
2023-09-21T13:11:41.434Z,26.81
2023-09-21T13:14:10.150Z,26.76
2023-09-21T13:16:38.347Z,26.70
2023-09-21T13:19:07.990Z,26.64
2023-09-21T13:21:36.351Z,26.58
2023-09-21T13:24:04.992Z,26.53
2023-09-21T13:26:33.012Z,26.49
2023-09-21T13:29:01.074Z,26.48
2023-09-21T13:31:29.103Z,26.43
2023-09-21T13:33:57.014Z,26.40
2023-09-21T13:36:25.227Z,26.38
2023-09-21T13:38:54.084Z,26.36
2023-09-21T13:41:22.573Z,26.33
2023-09-21T13:43:50.745Z,26.31
2023-09-21T13:46:18.877Z,26.28
2023-09-21T13:48:48.772Z,26.28
2023-09-21T13:51:17.684Z,26.29
2023-09-21T13:53:45.654Z,26.24
2023-09-21T13:56:14.549Z,26.22
2023-09-21T13:58:44.781Z,26.22
2023-09-21T14:01:12.910Z,26.25
2023-09-21T14:03:41.347Z,26.22
2023-09-21T14:06:09.416Z,26.20
2023-09-21T14:08:37.321Z,26.16
2023-09-21T14:11:05.680Z,26.14
2023-09-21T14:13:33.750Z,26.12
2023-09-21T14:16:01.769Z,26.11
2023-09-21T14:18:29.869Z,26.11
2023-09-21T14:20:57.889Z,26.10
2023-09-21T14:23:28.489Z,26.11
2023-09-21T14:25:56.554Z,26.14
2023-09-21T14:28:25.014Z,26.16
2023-09-21T14:30:54.239Z,26.16
2023-09-21T14:33:23.022Z,26.16
2023-09-21T14:35:51.213Z,26.19
2023-09-21T14:38:19.596Z,26.21
2023-09-21T14:40:47.562Z,26.27
2023-09-21T14:43:15.829Z,26.30
2023-09-21T14:45:43.897Z,26.32
2023-09-21T14:48:12.144Z,26.33
2023-09-21T14:50:40.090Z,26.32
2023-09-21T14:53:08.016Z,26.31
2023-09-21T14:55:36.123Z,26.37
2023-09-21T14:58:04.767Z,26.43
2023-09-21T15:00:32.979Z,26.52
2023-09-21T15:03:02.082Z,26.58
2023-09-21T15:05:31.080Z,26.63
2023-09-21T15:08:12.926Z,26.66
2023-09-21T15:10:43.486Z,26.64
2023-09-21T15:13:12.839Z,26.59
2023-09-21T15:15:41.382Z,26.51
2023-09-21T15:18:12.185Z,26.45
2023-09-21T15:20:41.910Z,26.39
2023-09-21T15:23:09.902Z,26.30
2023-09-21T15:25:38.099Z,26.22
2023-09-21T15:28:06.995Z,26.11
2023-09-21T15:30:38.786Z,26.01
2023-09-21T15:33:19.095Z,25.94
2023-09-21T15:35:55.768Z,25.87
2023-09-21T15:38:23.568Z,25.81
2023-09-21T15:40:51.914Z,25.75
2023-09-21T15:43:22.005Z,25.69
2023-09-21T15:45:51.604Z,25.68
2023-09-21T15:48:19.697Z,25.66
2023-09-21T15:50:47.649Z,25.62
2023-09-21T15:53:15.538Z,25.58
2023-09-21T15:55:43.795Z,25.54
2023-09-21T15:58:13.212Z,25.50
2023-09-21T16:00:41.238Z,25.48
2023-09-21T16:03:09.823Z,25.44
2023-09-21T16:05:38.660Z,25.40
2023-09-21T16:08:06.576Z,25.35
2023-09-21T16:10:34.488Z,25.32
2023-09-21T16:13:02.902Z,25.28
2023-09-21T16:15:31.115Z,25.21
2023-09-21T16:17:59.376Z,25.16
2023-09-21T16:20:27.508Z,25.08
2023-09-21T16:22:55.699Z,25.04
2023-09-21T16:25:24.336Z,24.99
2023-09-21T16:27:53.168Z,24.94
2023-09-21T16:30:21.292Z,24.90
2023-09-21T16:32:51.245Z,24.85
2023-09-21T16:35:19.910Z,24.81
2023-09-21T16:37:48.057Z,24.73
2023-09-21T16:40:19.151Z,24.67
2023-09-21T16:42:48.356Z,24.62
2023-09-21T16:45:16.591Z,24.57
2023-09-21T16:47:44.720Z,24.50
2023-09-21T16:50:12.680Z,24.45
2023-09-21T16:52:40.830Z,24.39
2023-09-21T16:55:09.002Z,24.35
2023-09-21T16:57:37.005Z,24.30
2023-09-21T17:00:07.513Z,24.23
2023-09-21T17:02:37.369Z,24.17
2023-09-21T17:05:07.146Z,24.11
2023-09-21T17:07:35.833Z,24.06
2023-09-21T17:10:06.206Z,24.02
2023-09-21T17:12:36.932Z,23.97
2023-09-21T17:15:05.366Z,23.92
2023-09-21T17:17:33.436Z,23.90
2023-09-21T17:20:01.928Z,23.88
2023-09-21T17:22:31.173Z,23.86
2023-09-21T17:24:59.277Z,23.84
2023-09-21T17:27:27.386Z,23.81
2023-09-21T17:29:55.287Z,23.79
2023-09-21T17:32:23.464Z,23.75
2023-09-21T17:34:52.415Z,23.73
2023-09-21T17:37:21.165Z,23.69
2023-09-21T17:39:50.363Z,23.65
2023-09-21T17:42:18.379Z,23.63
2023-09-21T17:44:46.849Z,23.60
2023-09-21T17:47:16.504Z,23.57
2023-09-21T17:49:45.360Z,23.55
2023-09-21T17:52:17.726Z,23.52
2023-09-21T17:54:46.039Z,23.46
2023-09-21T17:57:14.807Z,23.43
2023-09-21T17:59:43.141Z,23.38
2023-09-21T18:02:11.643Z,23.33
2023-09-21T18:04:40.095Z,23.30
2023-09-21T18:07:08.158Z,23.26
2023-09-21T18:09:36.199Z,23.22
2023-09-21T18:12:06.629Z,23.18
2023-09-21T18:14:34.560Z,23.14
2023-09-21T18:17:04.433Z,23.09
2023-09-21T18:19:33.786Z,23.04
2023-09-21T18:22:02.149Z,23.01
2023-09-21T18:24:30.044Z,22.97
2023-09-21T18:26:58.012Z,22.94
2023-09-21T18:29:27.648Z,22.91
2023-09-21T18:31:55.701Z,22.89
2023-09-21T18:34:23.594Z,22.86
2023-09-21T18:36:51.589Z,22.85
2023-09-21T18:39:19.613Z,22.82
2023-09-21T18:41:47.564Z,22.79
2023-09-21T18:44:15.389Z,22.77
2023-09-21T18:46:45.834Z,22.75
2023-09-21T18:49:14.024Z,22.73
2023-09-21T18:51:43.142Z,22.70
2023-09-21T18:54:13.560Z,22.68
2023-09-21T18:56:54.891Z,22.66
2023-09-21T18:59:28.756Z,22.61
2023-09-21T19:01:57.007Z,22.58
2023-09-21T19:04:25.889Z,22.55
2023-09-21T19:06:54.020Z,22.52
2023-09-21T19:09:23.422Z,22.47
2023-09-21T19:11:51.382Z,22.46
2023-09-21T19:14:19.352Z,22.42
2023-09-21T19:16:49.478Z,22.38
2023-09-21T19:19:20.129Z,22.36
2023-09-21T19:21:48.937Z,22.34
2023-09-21T19:24:16.952Z,22.31
2023-09-21T19:26:44.911Z,22.27
2023-09-21T19:29:13.996Z,22.24
2023-09-21T19:31:47.108Z,22.19
2023-09-21T19:34:15.486Z,22.16
2023-09-21T19:36:47.345Z,22.13
2023-09-21T19:39:17.802Z,22.11
2023-09-21T19:41:46.417Z,22.09
2023-09-21T19:44:14.657Z,22.06
2023-09-21T19:46:42.762Z,22.04
2023-09-21T19:49:10.991Z,22.02
2023-09-21T19:51:39.935Z,22.00
2023-09-21T19:54:08.229Z,21.99
2023-09-21T19:56:36.339Z,21.98
2023-09-21T19:59:06.505Z,21.97
2023-09-21T20:01:34.441Z,21.96
2023-09-21T20:04:03.471Z,21.93
2023-09-21T20:06:31.645Z,21.94
2023-09-21T20:08:59.659Z,21.93
2023-09-21T20:11:28.474Z,21.93
2023-09-21T20:13:58.218Z,21.92
2023-09-21T20:16:27.074Z,21.91
2023-09-21T20:18:56.010Z,21.89
2023-09-21T20:21:25.623Z,21.88
2023-09-21T20:23:53.567Z,21.87
2023-09-21T20:26:22.317Z,21.85
2023-09-21T20:28:50.296Z,21.83
2023-09-21T20:31:18.367Z,21.82
2023-09-21T20:33:47.048Z,21.81
2023-09-21T20:36:15.775Z,21.79
2023-09-21T20:38:43.845Z,21.78
2023-09-21T20:41:12.013Z,21.77
2023-09-21T20:43:40.618Z,21.76
2023-09-21T20:46:08.731Z,21.75
2023-09-21T20:48:37.214Z,21.73
2023-09-21T20:51:05.501Z,21.72
2023-09-21T20:53:33.479Z,21.71
2023-09-21T20:56:01.385Z,21.71
2023-09-21T20:58:30.661Z,21.69
2023-09-21T21:00:58.697Z,21.65
2023-09-21T21:03:27.350Z,21.63
2023-09-21T21:05:55.848Z,21.60
2023-09-21T21:08:24.589Z,21.60
2023-09-21T21:10:52.756Z,21.56
2023-09-21T21:13:21.463Z,21.54
2023-09-21T21:15:49.763Z,21.52
2023-09-21T21:18:17.907Z,21.49
2023-09-21T21:20:47.749Z,21.47
2023-09-21T21:23:15.681Z,21.43
2023-09-21T21:25:43.634Z,21.43
2023-09-21T21:28:11.635Z,21.42
2023-09-21T21:30:41.384Z,21.40
2023-09-21T21:33:09.512Z,21.37
2023-09-21T21:35:37.425Z,21.35
2023-09-21T21:38:05.484Z,21.33
2023-09-21T21:40:33.641Z,21.29
2023-09-21T21:43:01.727Z,21.26
2023-09-21T21:45:29.927Z,21.25
2023-09-21T21:47:58.175Z,21.22
2023-09-21T21:50:26.858Z,21.18
2023-09-21T21:52:54.830Z,21.15
2023-09-21T21:55:22.824Z,21.14
2023-09-21T21:57:50.817Z,21.08
2023-09-21T22:00:20.301Z,21.03
2023-09-21T22:02:48.548Z,21.00
2023-09-21T22:05:17.078Z,20.98
2023-09-21T22:07:45.194Z,20.95
2023-09-21T22:10:13.526Z,20.92
2023-09-21T22:12:41.752Z,20.89
2023-09-21T22:15:10.799Z,20.87
2023-09-21T22:17:39.447Z,20.84
2023-09-21T22:20:17.509Z,20.83
2023-09-21T22:22:46.853Z,20.79
2023-09-21T22:25:14.933Z,20.78
2023-09-21T22:27:43.104Z,20.76
2023-09-21T22:30:11.511Z,20.74
2023-09-21T22:32:39.843Z,20.71
2023-09-21T22:35:10.985Z,20.68
2023-09-21T22:37:38.841Z,20.65
2023-09-21T22:40:07.674Z,20.63
2023-09-21T22:42:49.096Z,20.58
2023-09-21T22:45:18.001Z,20.55
2023-09-21T22:47:47.281Z,20.51
2023-09-21T22:50:17.366Z,20.49
2023-09-21T22:52:49.516Z,20.46
2023-09-21T22:55:18.215Z,20.44
2023-09-21T22:57:46.762Z,20.44
2023-09-21T23:00:19.361Z,20.43
2023-09-21T23:02:47.880Z,20.42
2023-09-21T23:05:16.672Z,20.41
2023-09-21T23:07:44.878Z,20.41
2023-09-21T23:10:14.225Z,20.40
2023-09-21T23:12:45.893Z,20.40
2023-09-21T23:15:15.538Z,20.39
2023-09-21T23:17:44.097Z,20.39
2023-09-21T23:20:16.373Z,20.40
2023-09-21T23:22:46.571Z,20.40
2023-09-21T23:25:15.785Z,20.39
2023-09-21T23:27:44.013Z,20.40
2023-09-21T23:30:13.387Z,20.40
2023-09-21T23:32:42.353Z,20.40
2023-09-21T23:35:10.679Z,20.41
2023-09-21T23:37:39.410Z,20.41
2023-09-21T23:40:09.582Z,20.42
2023-09-21T23:42:43.546Z,20.41
2023-09-21T23:45:13.766Z,20.40
2023-09-21T23:47:42.117Z,20.38
2023-09-21T23:50:13.538Z,20.34
2023-09-21T23:52:45.695Z,20.32
2023-09-21T23:55:14.638Z,20.31
2023-09-21T23:57:47.106Z,20.29
